Aviation

FTHA31 MTPP 201700
TAF MTPP 201700Z 2018/2118 09015KT 9999 FEW027 SCT250
BECMG 2020/2024 27010KT FEW024CB SCT030
PROB30 TEMPO 2100/2104 4500 SHRA SCT022CB BKN040
BECMG 2106/2112 VRB02KT 9000 FEW020=